Terminal Aerodrome Forecast
Issued by NWS

Home | Current Version | Previous Version | Text Only | Print | Product List | Glossary On
Versions: 1 2 3 4 5 6 7 8 9 10 11 12 13 14 15 16 17 18 19 20 21 22 23 24 25 26 27 28 29 30 31 32 33 34 35 36 37 38 39 40 41 42
000
FTUS45 KBYZ 231120
TAFLVM
TAF
KLVM 231120Z 2312/2412 VRB06KT P6SM SCT100
     FM232000 17010G17KT P6SM SCT100
     FM232300 24017G24KT P6SM FEW100
     FM240500 24012KT P6SM FEW100=

USA.gov is the U.S. government's official web portal to all federal, state and local government web resources and services.